createdAt,value
2019-01-15T00:00:11.655Z,97.60
2019-01-15T00:02:59.710Z,98.40
2019-01-15T00:05:48.403Z,98.20
2019-01-15T00:08:36.833Z,98.00
2019-01-15T00:11:25.654Z,98.30
2019-01-15T00:14:13.934Z,98.00
2019-01-15T00:17:01.938Z,98.10
2019-01-15T00:19:50.136Z,98.10
2019-01-15T00:22:38.268Z,98.10
2019-01-15T00:25:26.690Z,98.00
2019-01-15T00:28:15.264Z,97.70
2019-01-15T00:31:03.475Z,97.40
2019-01-15T00:33:51.248Z,97.20
2019-01-15T00:36:39.054Z,97.20
2019-01-15T00:39:27.062Z,97.40
2019-01-15T00:42:15.689Z,97.60
2019-01-15T00:45:04.518Z,97.90
2019-01-15T00:50:47.223Z,97.60
2019-01-15T00:53:35.221Z,97.40
2019-01-15T00:56:23.673Z,97.60
2019-01-15T00:59:12.311Z,97.70
2019-01-15T01:02:00.560Z,97.60
2019-01-15T01:04:48.925Z,97.80
2019-01-15T01:07:36.759Z,97.80
2019-01-15T01:10:25.094Z,98.30
2019-01-15T01:13:13.722Z,98.60
2019-01-15T01:16:01.801Z,98.10
2019-01-15T01:18:49.879Z,98.40
2019-01-15T01:21:38.810Z,98.80
2019-01-15T01:24:26.550Z,98.40
2019-01-15T01:27:14.357Z,98.40
2019-01-15T01:30:01.979Z,98.10
2019-01-15T01:32:50.498Z,98.20
2019-01-15T01:35:38.856Z,98.00
2019-01-15T01:38:27.727Z,97.80
2019-01-15T01:41:15.810Z,97.70
2019-01-15T01:44:04.434Z,97.60
2019-01-15T01:46:52.903Z,97.90
2019-01-15T01:49:43.997Z,98.00
2019-01-15T01:52:31.730Z,97.90
2019-01-15T01:55:20.574Z,98.00
2019-01-15T01:58:08.671Z,98.10
2019-01-15T02:00:57.054Z,97.90
2019-01-15T02:03:45.497Z,97.60
2019-01-15T02:06:33.674Z,97.60
2019-01-15T02:09:21.698Z,97.40
2019-01-15T02:12:09.930Z,97.50
2019-01-15T02:14:58.410Z,97.40
2019-01-15T02:17:46.598Z,97.50
2019-01-15T02:20:35.139Z,97.80
2019-01-15T02:23:23.311Z,97.90
2019-01-15T02:26:11.672Z,98.00
2019-01-15T02:28:59.415Z,98.10
2019-01-15T02:31:47.924Z,98.20
2019-01-15T02:34:35.932Z,98.70
2019-01-15T02:37:23.928Z,99.00
2019-01-15T02:40:12.553Z,99.00
2019-01-15T02:43:01.295Z,98.90
2019-01-15T02:45:49.888Z,98.80
2019-01-15T02:48:38.014Z,98.30
2019-01-15T02:51:26.863Z,98.40
2019-01-15T02:54:15.656Z,98.80
2019-01-15T02:57:03.990Z,98.70
2019-01-15T02:59:52.204Z,98.60
2019-01-15T03:02:40.274Z,98.60
2019-01-15T03:05:28.936Z,98.60
2019-01-15T03:08:17.255Z,98.30
2019-01-15T03:11:05.802Z,98.20
2019-01-15T03:13:53.586Z,97.80
2019-01-15T03:16:41.698Z,97.70
2019-01-15T03:19:30.009Z,98.00
2019-01-15T03:22:18.665Z,98.50
2019-01-15T03:25:06.974Z,98.50
2019-01-15T03:27:54.550Z,98.50
2019-01-15T03:30:42.530Z,98.00
2019-01-15T03:33:30.537Z,98.30
2019-01-15T03:36:18.807Z,98.30
2019-01-15T03:39:09.570Z,98.40
2019-01-15T03:41:57.732Z,98.40
2019-01-15T03:47:33.271Z,99.30
2019-01-15T03:50:21.711Z,99.50
2019-01-15T03:53:10.019Z,99.60
2019-01-15T03:55:58.691Z,99.80
2019-01-15T03:58:46.914Z,99.90
2019-01-15T04:01:35.068Z,99.80
2019-01-15T04:04:23.123Z,99.80
2019-01-15T04:07:11.014Z,99.60
2019-01-15T04:09:59.095Z,99.70
2019-01-15T04:12:47.706Z,99.80
2019-01-15T04:15:35.652Z,99.80
2019-01-15T04:18:23.726Z,99.90
2019-01-15T04:21:11.719Z,99.80
2019-01-15T04:24:00.371Z,99.90
2019-01-15T04:26:48.263Z,99.90
2019-01-15T04:29:36.771Z,99.70
2019-01-15T04:32:24.633Z,99.70
2019-01-15T04:35:13.055Z,99.60
2019-01-15T04:38:01.827Z,99.80
2019-01-15T04:40:49.824Z,99.90
2019-01-15T04:43:37.785Z,99.90
2019-01-15T04:46:25.846Z,99.90
2019-01-15T04:49:14.368Z,99.90
2019-01-15T04:52:03.252Z,99.90
2019-01-15T04:54:51.875Z,99.90
2019-01-15T04:57:39.822Z,99.90
2019-01-15T05:00:28.344Z,99.90
2019-01-15T05:03:16.396Z,99.90
2019-01-15T05:06:04.905Z,99.90
2019-01-15T05:08:53.330Z,99.90
2019-01-15T05:11:41.335Z,99.50
2019-01-15T05:14:29.691Z,99.60
2019-01-15T05:17:17.599Z,99.70
2019-01-15T05:20:07.270Z,99.60
2019-01-15T05:22:55.714Z,99.50
2019-01-15T05:25:43.970Z,99.40
2019-01-15T05:28:32.588Z,99.60
2019-01-15T05:31:21.323Z,99.70
2019-01-15T05:34:10.157Z,99.30
2019-01-15T05:36:58.874Z,99.20
2019-01-15T05:39:47.594Z,99.50
2019-01-15T05:42:38.953Z,99.30
2019-01-15T05:45:35.318Z,99.70
2019-01-15T05:48:27.655Z,99.70
2019-01-15T05:51:30.721Z,99.80
2019-01-15T05:54:19.762Z,99.80
2019-01-15T05:57:07.642Z,99.80
2019-01-15T05:59:56.577Z,99.90
2019-01-15T06:02:44.972Z,99.90
2019-01-15T06:05:33.117Z,99.90
2019-01-15T06:08:21.787Z,99.90
2019-01-15T06:11:09.955Z,99.50
2019-01-15T06:13:58.637Z,99.20
2019-01-15T06:16:46.962Z,99.30
2019-01-15T06:19:35.008Z,99.20
2019-01-15T06:22:22.878Z,99.30
2019-01-15T06:25:11.371Z,99.20
2019-01-15T06:27:59.639Z,99.20
2019-01-15T06:30:47.678Z,99.10
2019-01-15T06:33:35.356Z,98.90
2019-01-15T06:36:23.884Z,99.10
2019-01-15T06:39:12.870Z,99.20
2019-01-15T06:42:01.619Z,99.50
2019-01-15T06:44:50.081Z,99.50
2019-01-15T06:47:38.155Z,99.70
2019-01-15T06:50:26.350Z,99.90
2019-01-15T06:53:14.582Z,99.90
2019-01-15T06:56:03.253Z,99.90
2019-01-15T06:58:51.622Z,99.90
2019-01-15T07:01:39.795Z,99.90
2019-01-15T07:04:28.239Z,99.70
2019-01-15T07:07:16.507Z,99.90
2019-01-15T07:10:07.030Z,99.70
2019-01-15T07:12:55.106Z,99.60
2019-01-15T07:15:43.205Z,99.60
2019-01-15T07:18:31.206Z,99.70
2019-01-15T07:21:19.114Z,99.70
2019-01-15T07:24:07.209Z,99.90
2019-01-15T07:26:55.344Z,99.70
2019-01-15T07:29:43.879Z,99.20
2019-01-15T07:32:31.862Z,99.40
2019-01-15T07:35:19.853Z,99.80
2019-01-15T07:38:07.969Z,99.60
2019-01-15T07:40:57.078Z,99.40
2019-01-15T07:43:45.391Z,99.50
2019-01-15T07:46:33.843Z,99.30
2019-01-15T07:49:21.917Z,98.80
2019-01-15T07:52:10.658Z,98.80
2019-01-15T07:54:58.598Z,99.00
2019-01-15T07:57:47.094Z,99.50
2019-01-15T08:00:35.530Z,99.80
2019-01-15T08:03:23.895Z,99.70
2019-01-15T08:06:12.102Z,99.50
2019-01-15T08:09:00.116Z,99.50
2019-01-15T08:11:48.355Z,99.60
2019-01-15T08:14:36.488Z,99.80
2019-01-15T08:17:24.885Z,99.60
2019-01-15T08:20:13.442Z,99.50
2019-01-15T08:23:01.431Z,99.20
2019-01-15T08:25:49.622Z,99.40
2019-01-15T08:28:37.334Z,99.70
2019-01-15T08:31:25.566Z,99.50
2019-01-15T08:34:13.322Z,99.40
2019-01-15T08:37:01.406Z,99.40
2019-01-15T08:39:49.931Z,99.20
2019-01-15T08:42:39.049Z,99.30
2019-01-15T08:45:27.594Z,99.50
2019-01-15T08:48:22.715Z,99.60
2019-01-15T08:51:11.850Z,99.40
2019-01-15T08:54:00.472Z,99.20
2019-01-15T08:56:52.946Z,99.30
2019-01-15T08:59:41.678Z,99.20
2019-01-15T09:02:29.768Z,99.70
2019-01-15T09:05:18.043Z,99.90
2019-01-15T09:08:06.039Z,99.80
2019-01-15T09:10:54.455Z,99.70
2019-01-15T09:13:43.034Z,99.90
2019-01-15T09:16:31.323Z,99.90
2019-01-15T09:19:19.108Z,99.90
2019-01-15T09:22:07.353Z,99.90
2019-01-15T09:24:55.215Z,99.90
2019-01-15T09:27:43.622Z,99.90
2019-01-15T09:30:32.012Z,99.90
2019-01-15T09:33:19.938Z,99.90
2019-01-15T09:36:08.237Z,99.90
2019-01-15T09:38:56.651Z,99.90
2019-01-15T09:41:45.180Z,99.90
2019-01-15T09:44:34.273Z,99.90
2019-01-15T09:47:22.668Z,99.90
2019-01-15T09:50:11.348Z,99.90
2019-01-15T09:52:59.899Z,99.90
2019-01-15T09:55:48.527Z,99.90
2019-01-15T09:58:36.719Z,99.90
2019-01-15T10:01:25.167Z,99.90
2019-01-15T10:04:13.608Z,99.90
2019-01-15T10:07:02.290Z,99.90
2019-01-15T10:09:50.214Z,99.90
2019-01-15T10:12:38.401Z,99.90
2019-01-15T10:15:26.312Z,99.90
2019-01-15T10:18:14.628Z,99.90
2019-01-15T10:21:02.621Z,99.90
2019-01-15T10:23:50.585Z,99.90
2019-01-15T10:26:39.469Z,99.90
2019-01-15T10:29:27.919Z,99.90
2019-01-15T10:32:34.463Z,99.90
2019-01-15T10:36:03.491Z,99.90
2019-01-15T10:38:52.058Z,99.90
2019-01-15T10:41:40.455Z,99.90
2019-01-15T10:44:28.600Z,99.90
2019-01-15T10:47:16.939Z,99.90
2019-01-15T10:50:05.984Z,99.90
2019-01-15T10:52:54.710Z,99.90
2019-01-15T10:55:43.129Z,99.90
2019-01-15T10:58:31.655Z,99.90
2019-01-15T11:01:19.677Z,99.90
2019-01-15T11:04:07.639Z,99.90
2019-01-15T11:06:57.423Z,99.90
2019-01-15T11:09:45.815Z,99.90
2019-01-15T11:12:33.991Z,99.90
2019-01-15T11:15:22.097Z,99.90
2019-01-15T11:18:10.502Z,99.90
2019-01-15T11:20:59.386Z,99.90
2019-01-15T11:23:48.347Z,99.90
2019-01-15T11:26:36.846Z,99.90
2019-01-15T11:29:24.812Z,99.90
2019-01-15T11:32:13.020Z,99.90
2019-01-15T11:35:00.977Z,99.50
2019-01-15T11:37:48.736Z,99.50
2019-01-15T11:40:36.998Z,99.60
2019-01-15T11:43:26.949Z,99.70
2019-01-15T11:46:15.699Z,99.60
2019-01-15T11:49:04.095Z,99.90
2019-01-15T11:51:52.783Z,99.90
2019-01-15T11:54:40.663Z,99.90
2019-01-15T11:57:28.962Z,99.60
2019-01-15T12:00:23.574Z,99.70
2019-01-15T12:03:22.604Z,99.60
2019-01-15T12:06:28.841Z,99.20
2019-01-15T12:09:35.238Z,98.80
2019-01-15T12:12:40.904Z,98.40
2019-01-15T12:15:57.442Z,98.90
2019-01-15T12:19:03.323Z,98.40
2019-01-15T12:22:09.295Z,98.20
2019-01-15T12:25:19.582Z,98.40
2019-01-15T12:28:30.475Z,98.80
2019-01-15T12:31:36.542Z,99.30
2019-01-15T12:34:56.349Z,99.20
2019-01-15T12:38:01.666Z,98.80
2019-01-15T12:40:59.729Z,98.60
2019-01-15T12:44:04.051Z,98.70
2019-01-15T12:47:11.369Z,98.90
2019-01-15T12:50:08.796Z,98.80
2019-01-15T12:53:19.697Z,99.10
2019-01-15T12:56:32.755Z,99.10
2019-01-15T12:59:59.186Z,99.10
2019-01-15T13:03:13.331Z,98.90
2019-01-15T13:06:26.699Z,98.80
2019-01-15T13:09:45.918Z,98.70
2019-01-15T13:13:05.999Z,98.60
2019-01-15T13:16:02.916Z,98.70
2019-01-15T13:19:22.343Z,99.00
2019-01-15T13:22:30.630Z,99.00
2019-01-15T13:25:38.143Z,99.30
2019-01-15T13:28:37.354Z,99.30
2019-01-15T13:31:33.594Z,99.20
2019-01-15T13:34:45.142Z,99.10
2019-01-15T13:37:56.402Z,98.90
2019-01-15T13:40:54.867Z,98.90
2019-01-15T13:43:56.210Z,99.50
2019-01-15T13:47:07.300Z,99.80
2019-01-15T13:50:27.182Z,99.90
2019-01-15T13:53:36.738Z,99.90
2019-01-15T13:59:53.270Z,99.90
2019-01-15T14:03:00.041Z,99.90
2019-01-15T14:06:06.104Z,99.90
2019-01-15T14:09:11.767Z,99.90
2019-01-15T14:12:15.586Z,99.90
2019-01-15T14:15:16.835Z,99.90
2019-01-15T14:18:25.695Z,99.80
2019-01-15T14:21:37.194Z,99.80
2019-01-15T14:24:37.246Z,99.90
2019-01-15T14:27:43.108Z,99.90
2019-01-15T14:30:53.027Z,99.80
2019-01-15T14:33:59.933Z,99.90
2019-01-15T14:37:19.596Z,99.90
2019-01-15T14:40:35.408Z,99.90
2019-01-15T14:43:48.540Z,99.90
2019-01-15T14:50:07.155Z,99.10
2019-01-15T14:53:00.906Z,99.20
2019-01-15T14:56:06.921Z,99.20
2019-01-15T14:59:16.423Z,99.00
2019-01-15T15:02:23.851Z,99.00
2019-01-15T15:05:29.708Z,98.60
2019-01-15T15:08:31.226Z,98.80
2019-01-15T15:11:51.154Z,99.10
2019-01-15T15:14:52.290Z,99.30
2019-01-15T15:17:58.268Z,99.20
2019-01-15T15:21:05.693Z,99.00
2019-01-15T15:24:20.067Z,99.10
2019-01-15T15:27:40.040Z,98.80
2019-01-15T15:30:46.229Z,98.60
2019-01-15T15:33:43.152Z,98.90
2019-01-15T15:36:49.837Z,98.80
2019-01-15T15:39:56.827Z,99.00
2019-01-15T15:43:03.389Z,98.80
2019-01-15T15:46:20.476Z,99.00
2019-01-15T15:49:27.421Z,99.00
2019-01-15T15:52:51.213Z,98.70
2019-01-15T15:56:08.279Z,98.90
2019-01-15T15:59:15.199Z,99.10
2019-01-15T16:02:22.166Z,99.00
2019-01-15T16:05:28.627Z,98.80
2019-01-15T16:08:27.671Z,98.60
2019-01-15T16:11:42.388Z,98.60
2019-01-15T16:14:49.370Z,99.00
2019-01-15T16:17:57.018Z,98.60
2019-01-15T16:21:18.019Z,98.80
2019-01-15T16:24:25.497Z,99.00
2019-01-15T16:27:44.539Z,98.70
2019-01-15T16:30:43.523Z,98.80
2019-01-15T16:33:57.230Z,99.00
2019-01-15T16:37:11.009Z,98.80
2019-01-15T16:40:17.121Z,99.10
2019-01-15T16:43:27.161Z,99.30
2019-01-15T16:46:33.922Z,99.70
2019-01-15T16:49:40.477Z,99.70
2019-01-15T16:55:53.419Z,99.50
2019-01-15T16:59:02.314Z,99.80
2019-01-15T17:02:04.016Z,99.80
2019-01-15T17:05:16.176Z,99.50
2019-01-15T17:08:35.055Z,99.10
2019-01-15T17:12:00.364Z,99.40
2019-01-15T17:15:14.184Z,99.50
2019-01-15T17:18:20.801Z,99.70
2019-01-15T17:21:29.729Z,99.90
2019-01-15T17:24:35.788Z,99.90
2019-01-15T17:27:51.827Z,99.90
2019-01-15T17:31:14.807Z,99.90
2019-01-15T17:34:18.230Z,99.90
2019-01-15T17:37:24.415Z,99.90
2019-01-15T17:40:30.843Z,99.90
2019-01-15T17:43:38.789Z,99.90
2019-01-15T17:46:47.195Z,99.90
2019-01-15T17:49:41.496Z,99.90
2019-01-15T17:52:49.639Z,99.90
2019-01-15T17:56:12.142Z,99.90
2019-01-15T17:59:18.158Z,99.90
2019-01-15T18:02:44.166Z,99.90
2019-01-15T18:05:51.266Z,99.90
2019-01-15T18:09:18.316Z,99.90
2019-01-15T18:12:25.239Z,99.90
2019-01-15T18:15:31.017Z,99.90
2019-01-15T18:18:39.898Z,99.90
2019-01-15T18:21:43.766Z,99.90
2019-01-15T18:24:51.168Z,99.90
2019-01-15T18:27:58.346Z,99.90
2019-01-15T18:31:04.526Z,99.90
2019-01-15T18:34:11.675Z,99.90
2019-01-15T18:37:32.634Z,99.90
2019-01-15T18:40:38.481Z,99.90
2019-01-15T18:43:49.432Z,99.90
2019-01-15T18:47:00.853Z,99.90
2019-01-15T18:50:08.924Z,99.90
2019-01-15T18:53:24.544Z,99.90
2019-01-15T18:56:26.882Z,99.90
2019-01-15T18:59:35.122Z,99.90
2019-01-15T19:02:42.510Z,99.90
2019-01-15T19:05:51.338Z,99.90
2019-01-15T19:08:54.026Z,99.90
2019-01-15T19:12:02.113Z,99.90
2019-01-15T19:15:11.807Z,99.90
2019-01-15T19:18:20.945Z,99.90
2019-01-15T19:21:42.978Z,99.90
2019-01-15T19:24:51.162Z,99.90
2019-01-15T19:28:01.573Z,99.90
2019-01-15T19:31:23.613Z,99.90
2019-01-15T19:34:36.090Z,99.90
2019-01-15T19:37:36.351Z,99.90
2019-01-15T19:40:47.534Z,99.90
2019-01-15T19:43:47.626Z,99.90
2019-01-15T19:46:54.018Z,99.90
2019-01-15T19:50:14.345Z,99.90
2019-01-15T19:53:15.227Z,99.90
2019-01-15T19:56:20.459Z,99.90
2019-01-15T19:59:22.131Z,99.90
2019-01-15T20:02:42.883Z,99.90
2019-01-15T20:06:07.352Z,99.90
2019-01-15T20:09:17.426Z,99.90
2019-01-15T20:12:17.543Z,99.90
2019-01-15T20:15:58.751Z,99.90
2019-01-15T20:19:15.419Z,99.90
2019-01-15T20:22:15.978Z,99.90
2019-01-15T20:25:26.897Z,99.90
2019-01-15T20:28:43.348Z,99.90
2019-01-15T20:31:50.246Z,99.90
2019-01-15T20:34:58.479Z,99.90
2019-01-15T20:37:58.716Z,99.90
2019-01-15T20:41:03.063Z,99.90
2019-01-15T20:44:10.412Z,99.90
2019-01-15T20:47:29.643Z,99.90
2019-01-15T20:50:50.023Z,99.90
2019-01-15T20:53:59.543Z,99.90
2019-01-15T20:57:15.239Z,99.90
2019-01-15T21:00:44.022Z,99.90
2019-01-15T21:03:54.390Z,99.90
2019-01-15T21:07:02.931Z,99.90
2019-01-15T21:13:31.923Z,99.90
2019-01-15T21:16:40.895Z,99.90
2019-01-15T21:19:54.978Z,99.90
2019-01-15T21:23:13.288Z,99.90
2019-01-15T21:26:24.039Z,99.90
2019-01-15T21:29:48.585Z,99.90
2019-01-15T21:33:06.411Z,99.90
2019-01-15T21:36:28.701Z,99.90
2019-01-15T21:39:28.079Z,99.90
2019-01-15T21:42:34.763Z,99.90
2019-01-15T21:45:42.383Z,99.90
2019-01-15T21:48:59.712Z,99.90
2019-01-15T21:52:02.238Z,99.90
2019-01-15T21:55:11.086Z,99.90
2019-01-15T21:58:14.127Z,99.90
2019-01-15T22:01:27.564Z,99.90
2019-01-15T22:04:49.771Z,99.90
2019-01-15T22:08:03.814Z,99.90
2019-01-15T22:11:10.202Z,99.90
2019-01-15T22:14:18.175Z,99.90
2019-01-15T22:17:20.896Z,99.90
2019-01-15T22:20:27.413Z,99.90
2019-01-15T22:23:46.487Z,99.90
2019-01-15T22:26:51.123Z,99.90
2019-01-15T22:29:57.936Z,99.90
2019-01-15T22:33:20.595Z,99.90
2019-01-15T22:36:27.024Z,99.90
2019-01-15T22:39:32.927Z,99.90
2019-01-15T22:42:39.542Z,99.90
2019-01-15T22:45:51.634Z,99.90
2019-01-15T22:49:07.867Z,99.90
2019-01-15T22:52:14.332Z,99.90
2019-01-15T22:55:35.778Z,99.90
2019-01-15T22:58:57.909Z,99.90
2019-01-15T23:01:59.349Z,99.90
2019-01-15T23:05:12.479Z,99.90
2019-01-15T23:08:19.599Z,99.90
2019-01-15T23:11:33.251Z,99.90
2019-01-15T23:14:45.663Z,99.90
2019-01-15T23:21:07.614Z,99.90
2019-01-15T23:24:27.409Z,99.90
2019-01-15T23:27:30.777Z,99.90
2019-01-15T23:30:57.574Z,99.90
2019-01-15T23:34:12.484Z,99.90
2019-01-15T23:37:32.259Z,99.90
2019-01-15T23:40:48.009Z,99.90
2019-01-15T23:43:58.891Z,99.90
2019-01-15T23:47:09.305Z,99.90
2019-01-15T23:50:20.254Z,99.90
2019-01-15T23:53:37.267Z,99.90
2019-01-15T23:56:42.925Z,99.90
2019-01-15T23:59:50.260Z,99.90
